createdAt,value
2022-07-25T00:01:42.373Z,45154.44
2022-07-25T00:04:11.099Z,45154.44
2022-07-25T00:06:39.217Z,45162.44
2022-07-25T00:09:05.725Z,45158.44
2022-07-25T00:11:32.344Z,45178.41
2022-07-25T00:13:59.649Z,45160.44
2022-07-25T00:16:26.148Z,45164.44
2022-07-25T00:18:52.677Z,45160.44
2022-07-25T00:21:19.114Z,45170.41
2022-07-25T00:23:45.556Z,45174.41
2022-07-25T00:26:11.989Z,45150.44
2022-07-25T00:28:38.478Z,45174.41
2022-07-25T00:31:05.131Z,45166.44
2022-07-25T00:33:31.667Z,45182.41
2022-07-25T00:35:58.331Z,45162.44
2022-07-25T00:38:24.773Z,45162.44
2022-07-25T00:40:54.585Z,45168.41
2022-07-25T00:43:22.428Z,45164.44
2022-07-25T00:45:48.822Z,45170.41
2022-07-25T00:48:15.281Z,45166.44
2022-07-25T00:50:41.965Z,45170.41
2022-07-25T00:53:09.551Z,45158.44
2022-07-25T00:55:37.221Z,45166.44
2022-07-25T00:58:04.028Z,45154.44
2022-07-25T01:00:30.576Z,45152.44
2022-07-25T01:02:57.434Z,45146.44
2022-07-25T01:05:23.988Z,45170.41
2022-07-25T01:07:51.908Z,45154.44
2022-07-25T01:10:18.424Z,45166.44
2022-07-25T01:12:55.133Z,45154.44
2022-07-25T01:15:23.781Z,45158.44
2022-07-25T01:17:51.014Z,45152.44
2022-07-25T01:20:19.409Z,45154.44
2022-07-25T01:22:46.315Z,45162.44
2022-07-25T01:25:14.251Z,45144.44
2022-07-25T01:27:42.095Z,45170.41
2022-07-25T01:30:10.845Z,45142.44
2022-07-25T01:32:37.610Z,45138.44
2022-07-25T01:35:06.955Z,45154.44
2022-07-25T01:37:34.078Z,45146.44
2022-07-25T01:40:00.884Z,45152.44
2022-07-25T01:42:28.107Z,45156.44
2022-07-25T01:44:55.040Z,45166.44
2022-07-25T01:47:21.701Z,45154.44
2022-07-25T01:49:48.138Z,45166.44
2022-07-25T01:52:14.679Z,45158.44
2022-07-25T01:54:41.775Z,45176.41
2022-07-25T01:57:10.451Z,45158.44
2022-07-25T01:59:39.249Z,45166.44
2022-07-25T02:02:07.142Z,45168.41
2022-07-25T02:04:34.883Z,45152.44
2022-07-25T02:07:01.526Z,45166.44
2022-07-25T02:09:28.057Z,45162.44
2022-07-25T02:11:54.526Z,45150.44
2022-07-25T02:14:21.098Z,45166.44
2022-07-25T02:16:47.763Z,45166.44
2022-07-25T02:19:14.320Z,45174.41
2022-07-25T02:21:41.043Z,45178.41
2022-07-25T02:24:08.205Z,45176.41
2022-07-25T02:26:35.039Z,45162.44
2022-07-25T02:29:01.483Z,45166.44
2022-07-25T02:31:27.944Z,45166.44
2022-07-25T02:33:54.377Z,45166.44
2022-07-25T02:36:21.157Z,45174.41
2022-07-25T02:38:48.341Z,45166.44
2022-07-25T02:41:14.778Z,45170.41
2022-07-25T02:43:41.225Z,45156.44
2022-07-25T02:46:07.738Z,45166.44
2022-07-25T02:48:34.436Z,45166.44
2022-07-25T02:51:00.938Z,45166.44
2022-07-25T02:53:47.075Z,45174.41
2022-07-25T02:56:14.142Z,45162.44
2022-07-25T02:58:41.389Z,45176.41
2022-07-25T03:01:08.450Z,45182.41
2022-07-25T03:03:34.950Z,45156.44
2022-07-25T03:06:01.656Z,45166.44
2022-07-25T03:08:28.576Z,45172.41
2022-07-25T03:10:55.107Z,45168.41
2022-07-25T03:13:21.540Z,45160.44
2022-07-25T03:15:48.650Z,45162.44
2022-07-25T03:18:15.127Z,45156.44
2022-07-25T03:20:41.651Z,45170.41
2022-07-25T03:23:08.133Z,45176.41
2022-07-25T03:25:34.550Z,45176.41
2022-07-25T03:28:00.979Z,45162.44
2022-07-25T03:30:27.537Z,45176.41
2022-07-25T03:32:54.952Z,45174.41
2022-07-25T03:35:21.766Z,45174.41
2022-07-25T03:37:48.249Z,45174.41
2022-07-25T03:40:16.008Z,45164.44
2022-07-25T03:42:42.868Z,45178.41
2022-07-25T03:45:10.004Z,45176.41
2022-07-25T03:47:36.678Z,45184.41
2022-07-25T03:50:03.550Z,45200.41
2022-07-25T03:52:29.984Z,45178.41
2022-07-25T03:54:56.449Z,45182.41
2022-07-25T03:57:22.917Z,45174.41
2022-07-25T03:59:49.328Z,45194.41
2022-07-25T04:02:15.843Z,45178.41
2022-07-25T04:04:43.389Z,45190.41
2022-07-25T04:07:09.916Z,45170.41
2022-07-25T04:09:37.199Z,45190.41
2022-07-25T04:12:03.999Z,45170.41
2022-07-25T04:14:30.417Z,45182.41
2022-07-25T04:16:56.959Z,45174.41
2022-07-25T04:19:23.544Z,45180.41
2022-07-25T04:21:52.834Z,45186.41
2022-07-25T04:24:19.287Z,45174.41
2022-07-25T04:26:45.709Z,45162.44
2022-07-25T04:29:12.159Z,45184.41
2022-07-25T04:31:38.744Z,45178.41
2022-07-25T04:34:05.705Z,45186.41
2022-07-25T04:36:32.401Z,45164.44
2022-07-25T04:38:58.834Z,45172.41
2022-07-25T04:41:25.301Z,45174.41
2022-07-25T04:43:51.812Z,45182.41
2022-07-25T04:46:20.217Z,45182.41
2022-07-25T04:48:47.340Z,45170.41
2022-07-25T04:51:15.492Z,45170.41
2022-07-25T04:53:42.070Z,45166.44
2022-07-25T04:56:09.050Z,45190.41
2022-07-25T04:58:35.617Z,45178.41
2022-07-25T05:01:02.426Z,45170.41
2022-07-25T05:03:28.973Z,45174.41
2022-07-25T05:05:55.489Z,45166.44
2022-07-25T05:08:21.911Z,45174.41
2022-07-25T05:10:48.336Z,45166.44
2022-07-25T05:13:14.869Z,45162.44
2022-07-25T05:15:42.770Z,45178.41
2022-07-25T05:18:09.333Z,45158.44
2022-07-25T05:23:03.415Z,45174.41
2022-07-25T05:25:29.865Z,45162.44
2022-07-25T05:27:58.504Z,45170.41
2022-07-25T05:30:25.289Z,45154.44
2022-07-25T05:32:52.185Z,45182.41
2022-07-25T05:35:18.683Z,45170.41
2022-07-25T05:37:45.161Z,45166.44
2022-07-25T05:40:11.686Z,45154.44
2022-07-25T05:42:38.176Z,45176.41
2022-07-25T05:45:05.435Z,45160.44
2022-07-25T05:47:31.874Z,45176.41
2022-07-25T05:49:58.409Z,45162.44
2022-07-25T05:52:24.873Z,45164.44
2022-07-25T05:54:51.444Z,45166.44
2022-07-25T05:57:17.936Z,45170.41
2022-07-25T05:59:44.384Z,45164.44
2022-07-25T06:02:11.139Z,45166.44
2022-07-25T06:04:37.852Z,45172.41
2022-07-25T06:07:04.343Z,45162.44
2022-07-25T06:09:31.855Z,45162.44
2022-07-25T06:12:01.068Z,45170.41
2022-07-25T06:14:28.907Z,45176.41
2022-07-25T06:16:55.557Z,45158.44
2022-07-25T06:19:22.369Z,45154.44
2022-07-25T06:21:48.864Z,45150.44
2022-07-25T06:24:15.523Z,45166.44
2022-07-25T06:26:42.740Z,45160.44
2022-07-25T06:29:09.233Z,45156.44
2022-07-25T06:31:35.688Z,45162.44
2022-07-25T06:34:02.202Z,45146.44
2022-07-25T06:36:32.538Z,45146.44
2022-07-25T06:38:59.728Z,45142.44
2022-07-25T06:41:26.570Z,45152.44
2022-07-25T06:43:53.060Z,45138.44
2022-07-25T06:46:19.577Z,45144.44
2022-07-25T06:48:46.071Z,45150.44
2022-07-25T06:51:12.705Z,45144.44
2022-07-25T06:53:39.132Z,45142.44
2022-07-25T06:56:05.942Z,45132.44
2022-07-25T06:58:32.373Z,45144.44
2022-07-25T07:01:01.063Z,45140.44
2022-07-25T07:03:28.037Z,45130.44
2022-07-25T07:05:54.524Z,45146.44
2022-07-25T07:08:21.003Z,45138.44
2022-07-25T07:10:47.440Z,45130.44
2022-07-25T07:13:23.871Z,45126.47
2022-07-25T07:15:51.429Z,45118.47
2022-07-25T07:18:19.272Z,45140.44
2022-07-25T07:20:46.272Z,45126.47
2022-07-25T07:23:16.601Z,45110.47
2022-07-25T07:25:46.076Z,45114.47
2022-07-25T07:28:12.738Z,45122.47
2022-07-25T07:31:13.526Z,45104.47
2022-07-25T07:33:25.606Z,45122.47
2022-07-25T07:35:52.072Z,45118.47
2022-07-25T07:38:18.485Z,45102.47
2022-07-25T07:40:45.067Z,45110.47
2022-07-25T07:43:11.529Z,45116.47
2022-07-25T07:45:37.936Z,45108.47
2022-07-25T07:48:06.263Z,45106.47
2022-07-25T07:50:32.722Z,45114.47
2022-07-25T07:52:59.311Z,45106.47
2022-07-25T07:55:44.170Z,45110.47
2022-07-25T07:58:16.182Z,45118.47
2022-07-25T08:00:47.310Z,45106.47
2022-07-25T08:03:17.145Z,45106.47
2022-07-25T08:05:46.497Z,45104.47
2022-07-25T08:08:14.722Z,45098.47
2022-07-25T08:10:46.999Z,45100.47
2022-07-25T08:13:16.017Z,45112.47
2022-07-25T08:15:44.515Z,45102.47
2022-07-25T08:18:17.782Z,45094.50
2022-07-25T08:20:46.137Z,45102.47
2022-07-25T08:23:13.427Z,45110.47
2022-07-25T08:25:40.420Z,45096.47
2022-07-25T08:28:07.476Z,45094.50
2022-07-25T08:30:35.488Z,45100.47
2022-07-25T08:33:04.403Z,45102.47
2022-07-25T08:35:32.851Z,45106.47
2022-07-25T08:38:00.547Z,45108.47
2022-07-25T08:40:29.571Z,45090.50
2022-07-25T08:42:56.600Z,45090.50
2022-07-25T08:45:24.300Z,45102.47
2022-07-25T08:47:52.709Z,45088.50
2022-07-25T08:50:22.706Z,45100.47
2022-07-25T08:52:50.578Z,45100.47
2022-07-25T08:55:22.400Z,45094.50
2022-07-25T08:57:53.072Z,45104.47
2022-07-25T09:00:22.475Z,45098.47
2022-07-25T09:03:00.503Z,45106.47
2022-07-25T09:05:29.129Z,45102.47
2022-07-25T09:07:56.990Z,45102.47
2022-07-25T09:10:26.403Z,45106.47
2022-07-25T09:13:05.076Z,45100.47
2022-07-25T09:15:34.335Z,45098.47
2022-07-25T09:18:05.745Z,45102.47
2022-07-25T09:20:39.707Z,45114.47
2022-07-25T09:23:07.115Z,45094.50
2022-07-25T09:25:34.045Z,45082.50
2022-07-25T09:28:15.015Z,45094.50
2022-07-25T09:30:54.747Z,45102.47
2022-07-25T09:33:23.103Z,45090.50
2022-07-25T09:35:49.553Z,45102.47
2022-07-25T09:38:17.378Z,45098.47
2022-07-25T09:41:01.320Z,45086.50
2022-07-25T09:43:38.192Z,45096.47
2022-07-25T09:46:05.704Z,45110.47
2022-07-25T09:48:32.906Z,45096.47
2022-07-25T09:50:59.602Z,45094.50
2022-07-25T09:53:26.619Z,45088.50
2022-07-25T09:55:57.093Z,45098.47
2022-07-25T09:58:28.092Z,45082.50
2022-07-25T10:01:00.646Z,45096.47
2022-07-25T10:03:46.960Z,45094.50
2022-07-25T10:06:28.119Z,45098.47
2022-07-25T10:08:54.844Z,45072.50
2022-07-25T10:11:27.739Z,45092.50
2022-07-25T10:13:54.907Z,45088.50
2022-07-25T10:16:26.270Z,45098.47
2022-07-25T10:18:58.476Z,45090.50
2022-07-25T10:21:27.992Z,45078.50
2022-07-25T10:24:04.295Z,45076.50
2022-07-25T10:26:32.409Z,45070.50
2022-07-25T10:28:59.122Z,45086.50
2022-07-25T10:31:31.644Z,45076.50
2022-07-25T10:34:02.136Z,45088.50
2022-07-25T10:36:42.745Z,45094.50
2022-07-25T10:39:11.856Z,45082.50
2022-07-25T10:42:02.998Z,45074.50
2022-07-25T10:44:49.209Z,45082.50
2022-07-25T10:47:17.530Z,45084.50
2022-07-25T10:50:14.485Z,45076.50
2022-07-25T10:52:41.425Z,45078.50
2022-07-25T10:55:08.411Z,45072.50
2022-07-25T10:57:35.768Z,45068.50
2022-07-25T11:00:07.034Z,45072.50
2022-07-25T11:02:33.714Z,45072.50
2022-07-25T11:05:03.013Z,45072.50
2022-07-25T11:07:35.776Z,45070.50
2022-07-25T11:10:05.639Z,45046.53
2022-07-25T11:12:32.543Z,45070.50
2022-07-25T11:15:05.155Z,45052.53
2022-07-25T11:17:32.170Z,45054.53
2022-07-25T11:20:01.383Z,45066.50
2022-07-25T11:22:33.102Z,45062.50
2022-07-25T11:25:00.635Z,45058.53
2022-07-25T11:27:27.315Z,45050.53
2022-07-25T11:30:05.763Z,45050.53
2022-07-25T11:32:40.425Z,45056.53
2022-07-25T11:35:07.808Z,45034.53
2022-07-25T11:37:38.300Z,45032.53
2022-07-25T11:40:06.820Z,45042.53
2022-07-25T11:43:00.017Z,45026.53
2022-07-25T11:45:33.354Z,45032.53
2022-07-25T11:48:07.465Z,45034.53
2022-07-25T11:50:36.533Z,45028.53
2022-07-25T11:53:05.707Z,45026.53
2022-07-25T11:55:36.258Z,45014.56
2022-07-25T11:58:04.884Z,45042.53
2022-07-25T12:00:35.410Z,45030.53
2022-07-25T12:03:37.354Z,45048.53
2022-07-25T12:06:11.650Z,45026.53
2022-07-25T12:08:40.946Z,45030.53
2022-07-25T12:11:18.354Z,45034.53
2022-07-25T12:13:45.049Z,45042.53
2022-07-25T12:16:11.505Z,45036.53
2022-07-25T12:18:38.541Z,45040.53
2022-07-25T12:21:05.415Z,45034.53
2022-07-25T12:23:32.278Z,45036.53
2022-07-25T12:25:58.779Z,45026.53
2022-07-25T12:28:25.229Z,45028.53
2022-07-25T12:30:56.482Z,45034.53
2022-07-25T12:33:23.941Z,45046.53
2022-07-25T12:35:51.765Z,45046.53
2022-07-25T12:38:18.285Z,45048.53
2022-07-25T12:40:44.764Z,45034.53
2022-07-25T12:43:11.252Z,45036.53
2022-07-25T12:45:37.796Z,45042.53
2022-07-25T12:48:04.877Z,45026.53
2022-07-25T12:50:31.517Z,45052.53
2022-07-25T12:52:57.994Z,45042.53
2022-07-25T12:55:24.528Z,45042.53
2022-07-25T12:57:51.295Z,45030.53
2022-07-25T13:00:20.924Z,45038.53
2022-07-25T13:02:48.577Z,45038.53
2022-07-25T13:05:15.168Z,45026.53
2022-07-25T13:07:41.641Z,45034.53
2022-07-25T13:10:08.696Z,45018.56
2022-07-25T13:12:35.321Z,45026.53
2022-07-25T13:15:02.269Z,45018.56
2022-07-25T13:17:28.800Z,45034.53
2022-07-25T13:19:56.371Z,45010.56
2022-07-25T13:22:23.637Z,45018.56
2022-07-25T13:24:50.363Z,45010.56
2022-07-25T13:27:20.810Z,45012.56
2022-07-25T13:29:48.334Z,45006.56
2022-07-25T13:32:15.027Z,45014.56
2022-07-25T13:34:41.462Z,45008.56
2022-07-25T13:37:08.025Z,45006.56
2022-07-25T13:39:35.599Z,45014.56
2022-07-25T13:42:02.044Z,44994.56
2022-07-25T13:44:28.516Z,44996.56
2022-07-25T13:46:55.029Z,45010.56
2022-07-25T13:49:21.744Z,45002.56
2022-07-25T13:51:48.197Z,45014.56
2022-07-25T13:54:14.654Z,45022.56
2022-07-25T13:56:42.290Z,45014.56
2022-07-25T13:59:09.190Z,45018.56
2022-07-25T14:01:36.117Z,45014.56
2022-07-25T14:04:02.837Z,45030.53
2022-07-25T14:06:29.358Z,45036.53
2022-07-25T14:08:55.793Z,45036.53
2022-07-25T14:11:24.860Z,45038.53
2022-07-25T14:13:55.929Z,45050.53
2022-07-25T14:16:22.422Z,45046.53
2022-07-25T14:18:48.963Z,45046.53
2022-07-25T14:21:15.370Z,45052.53
2022-07-25T14:23:41.883Z,45052.53
2022-07-25T14:26:08.412Z,45056.53
2022-07-25T14:28:34.848Z,45050.53
2022-07-25T14:31:01.377Z,45074.50
2022-07-25T14:33:27.848Z,45048.53
2022-07-25T14:35:54.311Z,45046.53
2022-07-25T14:38:20.758Z,45062.50
2022-07-25T14:40:47.877Z,45062.50
2022-07-25T14:43:14.337Z,45058.53
2022-07-25T14:45:41.629Z,45062.50
2022-07-25T14:48:08.245Z,45058.53
2022-07-25T14:50:34.650Z,45070.50
2022-07-25T14:53:01.083Z,45062.50
2022-07-25T14:55:27.664Z,45074.50
2022-07-25T14:57:54.089Z,45082.50
2022-07-25T15:00:22.779Z,45066.50
2022-07-25T15:02:51.461Z,45074.50
2022-07-25T15:05:17.926Z,45074.50
2022-07-25T15:07:44.625Z,45074.50
2022-07-25T15:10:11.090Z,45068.50
2022-07-25T15:12:37.573Z,45076.50
2022-07-25T15:15:04.772Z,45098.47
2022-07-25T15:17:31.206Z,45084.50
2022-07-25T15:19:58.074Z,45078.50
2022-07-25T15:22:24.595Z,45074.50
2022-07-25T15:25:22.452Z,45078.50
2022-07-25T15:27:37.761Z,45068.50
2022-07-25T15:30:05.954Z,45076.50
2022-07-25T15:32:32.782Z,45086.50
2022-07-25T15:34:59.325Z,45070.50
2022-07-25T15:37:25.818Z,45068.50
2022-07-25T15:39:52.264Z,45074.50
2022-07-25T15:42:18.827Z,45068.50
2022-07-25T15:44:45.236Z,45058.53
2022-07-25T15:47:11.739Z,45074.50
2022-07-25T15:49:38.266Z,45078.50
2022-07-25T15:52:04.944Z,45070.50
2022-07-25T15:54:31.469Z,45074.50
2022-07-25T15:56:58.015Z,45072.50
2022-07-25T15:59:24.563Z,45070.50
2022-07-25T16:01:50.989Z,45072.50
2022-07-25T16:04:17.496Z,45064.50
2022-07-25T16:06:44.418Z,45062.50
2022-07-25T16:09:12.425Z,45068.50
2022-07-25T16:11:39.195Z,45056.53
2022-07-25T16:14:05.828Z,45066.50
2022-07-25T16:16:32.658Z,45080.50
2022-07-25T16:18:59.158Z,45070.50
2022-07-25T16:21:25.638Z,45066.50
2022-07-25T16:23:52.377Z,45076.50
2022-07-25T16:26:19.210Z,45066.50
2022-07-25T16:28:47.474Z,45078.50
2022-07-25T16:31:14.180Z,45078.50
2022-07-25T16:33:40.868Z,45090.50
2022-07-25T16:36:07.958Z,45070.50
2022-07-25T16:38:34.761Z,45088.50
2022-07-25T16:41:01.301Z,45070.50
2022-07-25T16:43:27.709Z,45090.50
2022-07-25T16:45:54.223Z,45076.50
2022-07-25T16:48:20.648Z,45092.50
2022-07-25T16:50:47.781Z,45078.50
2022-07-25T16:53:14.312Z,45076.50
2022-07-25T16:55:40.773Z,45094.50
2022-07-25T16:58:07.289Z,45082.50
2022-07-25T17:00:33.723Z,45090.50
2022-07-25T17:03:00.980Z,45094.50
2022-07-25T17:05:27.443Z,45086.50
2022-07-25T17:07:59.573Z,45086.50
2022-07-25T17:10:27.065Z,45098.47
2022-07-25T17:12:53.579Z,45078.50
2022-07-25T17:15:20.087Z,45082.50
2022-07-25T17:17:46.559Z,45088.50
2022-07-25T17:20:13.510Z,45098.47
2022-07-25T17:22:39.981Z,45092.50
2022-07-25T17:25:07.055Z,45072.50
2022-07-25T17:27:33.549Z,45090.50
2022-07-25T17:30:00.016Z,45098.47
2022-07-25T17:32:29.930Z,45074.50
2022-07-25T17:34:57.559Z,45090.50
2022-07-25T17:37:24.281Z,45074.50
2022-07-25T17:39:50.773Z,45090.50
2022-07-25T17:42:22.062Z,45076.50
2022-07-25T17:44:49.920Z,45092.50
2022-07-25T17:47:17.116Z,45094.50
2022-07-25T17:49:43.867Z,45088.50
2022-07-25T17:52:13.277Z,45078.50
2022-07-25T17:54:42.648Z,45094.50
2022-07-25T17:57:09.472Z,45086.50
2022-07-25T17:59:36.150Z,45098.47
2022-07-25T18:02:03.118Z,45108.47
2022-07-25T18:04:29.912Z,45090.50
2022-07-25T18:06:56.756Z,45106.47
2022-07-25T18:09:24.084Z,45090.50
2022-07-25T18:11:51.052Z,45102.47
2022-07-25T18:14:17.469Z,45106.47
2022-07-25T18:16:45.355Z,45106.47
2022-07-25T18:19:12.136Z,45106.47
2022-07-25T18:21:38.844Z,45110.47
2022-07-25T18:24:06.276Z,45106.47
2022-07-25T18:26:33.800Z,45090.50
2022-07-25T18:29:00.453Z,45106.47
2022-07-25T18:31:27.010Z,45124.47
2022-07-25T18:33:53.529Z,45098.47
2022-07-25T18:36:20.001Z,45102.47
2022-07-25T18:38:46.662Z,45114.47
2022-07-25T18:41:28.517Z,45118.47
2022-07-25T18:43:56.164Z,45108.47
2022-07-25T18:46:22.882Z,45110.47
2022-07-25T18:48:49.957Z,45108.47
2022-07-25T18:51:16.577Z,45118.47
2022-07-25T18:53:47.710Z,45122.47
2022-07-25T18:56:15.641Z,45118.47
2022-07-25T18:58:42.171Z,45114.47
2022-07-25T19:01:09.296Z,45130.44
2022-07-25T19:03:37.508Z,45116.47
2022-07-25T19:06:04.967Z,45118.47
2022-07-25T19:08:32.645Z,45122.47
2022-07-25T19:10:59.177Z,45134.44
2022-07-25T19:13:48.380Z,45136.44
2022-07-25T19:16:12.368Z,45130.44
2022-07-25T19:18:40.077Z,45134.44
2022-07-25T19:21:07.209Z,45138.44
2022-07-25T19:23:34.056Z,45136.44
2022-07-25T19:26:01.998Z,45130.44
2022-07-25T19:28:29.005Z,45126.47
2022-07-25T19:30:56.592Z,45138.44
2022-07-25T19:33:23.878Z,45130.44
2022-07-25T19:35:50.404Z,45126.47
2022-07-25T19:38:16.924Z,45108.47
2022-07-25T19:40:43.421Z,45126.47
2022-07-25T19:43:09.898Z,45128.47
2022-07-25T19:45:38.934Z,45152.44
2022-07-25T19:48:06.318Z,45142.44
2022-07-25T19:50:32.844Z,45142.44
2022-07-25T19:53:00.875Z,45158.44
2022-07-25T19:55:28.052Z,45138.44
2022-07-25T19:57:54.475Z,45134.44
2022-07-25T20:00:21.138Z,45150.44
2022-07-25T20:02:47.634Z,45146.44
2022-07-25T20:05:14.863Z,45154.44
2022-07-25T20:07:41.275Z,45146.44
2022-07-25T20:10:08.662Z,45134.44
2022-07-25T20:12:35.109Z,45140.44
2022-07-25T20:15:01.989Z,45142.44
2022-07-25T20:17:28.518Z,45144.44
2022-07-25T20:19:55.008Z,45154.44
2022-07-25T20:22:21.575Z,45138.44
2022-07-25T20:24:48.018Z,45144.44
2022-07-25T20:27:14.493Z,45152.44
2022-07-25T20:29:40.959Z,45146.44
2022-07-25T20:32:07.371Z,45146.44
2022-07-25T20:34:33.812Z,45156.44
2022-07-25T20:37:00.257Z,45142.44
2022-07-25T20:39:28.693Z,45142.44
2022-07-25T20:41:55.361Z,45130.44
2022-07-25T20:44:21.885Z,45150.44
2022-07-25T20:46:48.404Z,45160.44
2022-07-25T20:49:14.919Z,45162.44
2022-07-25T20:51:41.431Z,45174.41
2022-07-25T20:54:08.089Z,45146.44
2022-07-25T20:56:34.549Z,45162.44
2022-07-25T20:59:00.985Z,45144.44
2022-07-25T21:01:27.575Z,45166.44
2022-07-25T21:03:54.051Z,45146.44
2022-07-25T21:06:20.497Z,45178.41
2022-07-25T21:08:53.714Z,45170.41
2022-07-25T21:11:20.348Z,45172.41
2022-07-25T21:13:46.825Z,45170.41
2022-07-25T21:16:13.367Z,45174.41
2022-07-25T21:18:39.915Z,45170.41
2022-07-25T21:21:11.756Z,45168.41
2022-07-25T21:23:38.810Z,45170.41
2022-07-25T21:26:05.770Z,45174.41
2022-07-25T21:28:32.198Z,45162.44
2022-07-25T21:30:58.706Z,45182.41
2022-07-25T21:33:25.194Z,45186.41
2022-07-25T21:35:53.702Z,45192.41
2022-07-25T21:38:26.023Z,45182.41
2022-07-25T21:40:54.586Z,45190.41
2022-07-25T21:43:21.201Z,45184.41
2022-07-25T21:45:48.191Z,45182.41
2022-07-25T21:48:14.697Z,45196.41
2022-07-25T21:50:43.935Z,45186.41
2022-07-25T21:53:13.105Z,45182.41
2022-07-25T21:55:40.466Z,45160.44
2022-07-25T21:58:08.074Z,45194.41
2022-07-25T22:00:40.036Z,45180.41
2022-07-25T22:03:10.572Z,45188.41
2022-07-25T22:05:36.981Z,45182.41
2022-07-25T22:08:03.604Z,45202.38
2022-07-25T22:10:30.106Z,45190.41
2022-07-25T22:12:56.645Z,45182.41
2022-07-25T22:15:23.174Z,45180.41
2022-07-25T22:17:50.194Z,45182.41
2022-07-25T22:20:18.477Z,45194.41
2022-07-25T22:22:48.442Z,45186.41
2022-07-25T22:25:16.148Z,45182.41
2022-07-25T22:27:43.326Z,45186.41
2022-07-25T22:30:16.177Z,45182.41
2022-07-25T22:32:46.213Z,45182.41
2022-07-25T22:35:12.841Z,45182.41
2022-07-25T22:37:39.381Z,45204.38
2022-07-25T22:40:06.302Z,45198.41
2022-07-25T22:42:32.888Z,45196.41
2022-07-25T22:44:59.305Z,45182.41
2022-07-25T22:47:25.725Z,45202.38
2022-07-25T22:49:52.159Z,45194.41
2022-07-25T22:52:18.682Z,45190.41
2022-07-25T22:54:45.217Z,45204.38
2022-07-25T22:57:11.794Z,45206.38
2022-07-25T22:59:38.316Z,45198.41
2022-07-25T23:02:04.890Z,45212.38
2022-07-25T23:04:31.375Z,45202.38
2022-07-25T23:06:57.862Z,45198.41
2022-07-25T23:09:24.337Z,45208.38
2022-07-25T23:12:00.181Z,45190.41
2022-07-25T23:14:26.600Z,45210.38
2022-07-25T23:17:11.681Z,45200.41
2022-07-25T23:19:38.110Z,45194.41
2022-07-25T23:22:04.610Z,45194.41
2022-07-25T23:24:34.398Z,45202.38
2022-07-25T23:27:04.140Z,45206.38
2022-07-25T23:29:30.563Z,45214.38
2022-07-25T23:31:57.061Z,45198.41
2022-07-25T23:34:23.636Z,45202.38
2022-07-25T23:36:50.132Z,45214.38
2022-07-25T23:39:16.748Z,45196.41
2022-07-25T23:41:43.164Z,45210.38
2022-07-25T23:44:10.948Z,45210.38
2022-07-25T23:46:38.664Z,45210.38
2022-07-25T23:49:06.503Z,45222.38
2022-07-25T23:51:33.444Z,45210.38
2022-07-25T23:53:59.895Z,45222.38
2022-07-25T23:56:26.464Z,45222.38
2022-07-25T23:58:53.352Z,45218.38
